createdAt,value
2019-02-15T00:00:27.480Z,101460.30
2019-02-15T00:02:56.114Z,101461.11
2019-02-15T00:05:24.676Z,101459.41
2019-02-15T00:07:53.201Z,101462.39
2019-02-15T00:10:21.757Z,101462.39
2019-02-15T00:12:50.397Z,101457.32
2019-02-15T00:15:19.070Z,101457.32
2019-02-15T00:17:52.167Z,101459.08
2019-02-15T00:20:31.342Z,101459.08
2019-02-15T00:22:59.997Z,101450.95
2019-02-15T00:25:28.627Z,101459.89
2019-02-15T00:27:57.215Z,101455.17
2019-02-15T00:30:28.967Z,101448.31
2019-02-15T00:32:57.607Z,101453.92
2019-02-15T00:35:26.254Z,101439.44
2019-02-15T00:37:54.804Z,101450.16
2019-02-15T00:40:23.308Z,101455.69
2019-02-15T00:42:51.972Z,101458.28
2019-02-15T00:45:22.170Z,101458.28
2019-02-15T00:47:52.379Z,101448.92
2019-02-15T00:50:22.675Z,101448.92
2019-02-15T00:52:52.866Z,101453.52
2019-02-15T00:55:25.792Z,101446.74
2019-02-15T00:57:58.850Z,101446.74
2019-02-15T01:00:31.660Z,101445.41
2019-02-15T01:03:17.156Z,101448.85
2019-02-15T01:05:47.353Z,101443.47
2019-02-15T01:08:20.128Z,101437.66
2019-02-15T01:10:50.428Z,101437.66
2019-02-15T01:13:18.986Z,101435.16
2019-02-15T01:15:47.609Z,101438.96
2019-02-15T01:18:16.268Z,101436.85
2019-02-15T01:20:44.837Z,101435.28
2019-02-15T01:23:13.426Z,101435.28
2019-02-15T01:25:43.691Z,101426.32
2019-02-15T01:28:13.916Z,101437.77
2019-02-15T01:30:46.807Z,101424.55
2019-02-15T01:33:16.998Z,101424.95
2019-02-15T01:35:56.113Z,101414.28
2019-02-15T01:38:31.275Z,101411.63
2019-02-15T01:41:13.048Z,101411.63
2019-02-15T01:43:43.243Z,101412.09
2019-02-15T01:46:15.821Z,101415.06
2019-02-15T01:48:44.349Z,101406.09
2019-02-15T01:51:12.988Z,101409.53
2019-02-15T01:53:41.472Z,101409.55
2019-02-15T01:56:10.025Z,101408.25
2019-02-15T01:58:38.643Z,101409.52
2019-02-15T02:01:07.331Z,101412.91
2019-02-15T02:03:36.123Z,101410.80
2019-02-15T02:06:04.971Z,101405.22
2019-02-15T02:08:33.908Z,101411.20
2019-02-15T02:11:02.561Z,101405.80
2019-02-15T02:13:31.185Z,101406.23
2019-02-15T02:15:59.786Z,101406.67
2019-02-15T02:18:28.325Z,101410.08
2019-02-15T02:20:56.896Z,101408.77
2019-02-15T02:23:25.502Z,101403.25
2019-02-15T02:25:54.093Z,101401.54
2019-02-15T02:28:22.729Z,101405.03
2019-02-15T02:30:51.288Z,101401.20
2019-02-15T02:33:19.976Z,101396.96
2019-02-15T02:35:48.710Z,101390.08
2019-02-15T02:38:17.341Z,101396.54
2019-02-15T02:40:45.935Z,101389.70
2019-02-15T02:43:14.483Z,101385.03
2019-02-15T02:45:42.965Z,101388.05
2019-02-15T02:48:11.540Z,101391.47
2019-02-15T02:50:40.099Z,101390.61
2019-02-15T02:53:08.713Z,101389.77
2019-02-15T02:55:37.307Z,101385.91
2019-02-15T02:58:05.996Z,101384.63
2019-02-15T03:00:34.636Z,101384.66
2019-02-15T03:03:03.290Z,101385.55
2019-02-15T03:05:31.925Z,101383.88
2019-02-15T03:08:00.558Z,101389.87
2019-02-15T03:10:29.197Z,101398.91
2019-02-15T03:12:57.673Z,101401.11
2019-02-15T03:15:26.286Z,101403.22
2019-02-15T03:17:54.941Z,101408.81
2019-02-15T03:20:30.936Z,101406.64
2019-02-15T03:22:54.105Z,101408.81
2019-02-15T03:25:22.703Z,101407.95
2019-02-15T03:27:51.252Z,101419.54
2019-02-15T03:30:19.796Z,101420.08
2019-02-15T03:32:48.459Z,101418.80
2019-02-15T03:35:17.016Z,101429.05
2019-02-15T03:37:47.144Z,101424.81
2019-02-15T03:40:20.432Z,101420.98
2019-02-15T03:42:49.000Z,101422.67
2019-02-15T03:45:18.318Z,101427.77
2019-02-15T03:47:46.924Z,101421.78
2019-02-15T03:50:15.538Z,101415.41
2019-02-15T03:52:44.089Z,101420.97
2019-02-15T03:55:12.749Z,101415.45
2019-02-15T03:57:42.138Z,101416.34
2019-02-15T04:00:12.659Z,101415.14
2019-02-15T04:02:41.322Z,101411.75
2019-02-15T04:05:09.959Z,101412.16
2019-02-15T04:07:38.626Z,101421.97
2019-02-15T04:10:09.379Z,101423.67
2019-02-15T04:12:38.001Z,101416.48
2019-02-15T04:15:07.911Z,101413.45
2019-02-15T04:17:36.572Z,101417.33
2019-02-15T04:20:07.923Z,101417.73
2019-02-15T04:22:36.476Z,101411.37
2019-02-15T04:25:05.929Z,101414.38
2019-02-15T04:27:34.562Z,101411.02
2019-02-15T04:30:03.189Z,101413.20
2019-02-15T04:32:31.786Z,101412.83
2019-02-15T04:35:00.320Z,101400.03
2019-02-15T04:37:28.900Z,101396.63
2019-02-15T04:39:57.481Z,101403.03
2019-02-15T04:42:26.042Z,101399.69
2019-02-15T04:44:54.531Z,101401.82
2019-02-15T04:47:23.201Z,101403.13
2019-02-15T04:49:51.772Z,101401.50
2019-02-15T04:52:20.316Z,101402.44
2019-02-15T04:54:48.923Z,101411.84
2019-02-15T04:57:17.477Z,101408.90
2019-02-15T04:59:46.031Z,101408.91
2019-02-15T05:02:14.626Z,101410.19
2019-02-15T05:04:43.104Z,101402.99
2019-02-15T05:07:11.599Z,101397.91
2019-02-15T05:09:40.110Z,101405.61
2019-02-15T05:12:08.613Z,101405.61
2019-02-15T05:14:37.087Z,101412.02
2019-02-15T05:17:05.715Z,101406.47
2019-02-15T05:19:34.193Z,101402.62
2019-02-15T05:22:02.676Z,101403.52
2019-02-15T05:24:31.209Z,101403.52
2019-02-15T05:26:59.756Z,101395.50
2019-02-15T05:29:28.308Z,101406.56
2019-02-15T05:31:56.943Z,101403.20
2019-02-15T05:34:25.422Z,101403.20
2019-02-15T05:36:53.963Z,101415.12
2019-02-15T05:39:22.555Z,101419.87
2019-02-15T05:41:51.110Z,101417.35
2019-02-15T05:44:19.776Z,101417.35
2019-02-15T05:46:49.897Z,101424.55
2019-02-15T05:49:18.516Z,101425.84
2019-02-15T05:51:47.643Z,101425.84
2019-02-15T05:54:16.787Z,101430.13
2019-02-15T05:56:45.384Z,101430.13
2019-02-15T05:59:13.977Z,101434.36
2019-02-15T06:01:42.545Z,101439.09
2019-02-15T06:04:11.073Z,101438.20
2019-02-15T06:06:39.562Z,101443.77
2019-02-15T06:09:08.169Z,101447.17
2019-02-15T06:11:36.789Z,101450.99
2019-02-15T06:14:05.274Z,101462.08
2019-02-15T06:16:33.861Z,101454.81
2019-02-15T06:19:02.494Z,101451.42
2019-02-15T06:21:31.081Z,101459.91
2019-02-15T06:23:59.693Z,101462.88
2019-02-15T06:26:28.245Z,101467.53
2019-02-15T06:28:56.805Z,101465.80
2019-02-15T06:31:26.915Z,101465.78
2019-02-15T06:33:57.109Z,101467.86
2019-02-15T06:36:27.305Z,101462.70
2019-02-15T06:38:57.467Z,101468.66
2019-02-15T06:41:27.731Z,101480.59
2019-02-15T06:43:57.847Z,101484.42
2019-02-15T06:46:26.509Z,101478.84
2019-02-15T06:48:55.072Z,101482.66
2019-02-15T06:51:23.632Z,101477.51
2019-02-15T06:53:52.151Z,101480.45
2019-02-15T06:56:22.410Z,101488.49
2019-02-15T06:58:58.059Z,101479.85
2019-02-15T07:01:35.176Z,101491.30
2019-02-15T07:04:05.343Z,101494.96
2019-02-15T07:06:33.892Z,101490.23
2019-02-15T07:09:02.451Z,101496.69
2019-02-15T07:11:30.962Z,101494.08
2019-02-15T07:14:01.199Z,101500.97
2019-02-15T07:16:29.687Z,101500.12
2019-02-15T07:18:59.860Z,101500.98
2019-02-15T07:21:28.556Z,101503.91
2019-02-15T07:23:57.262Z,101508.54
2019-02-15T07:26:27.358Z,101513.16
2019-02-15T07:28:57.602Z,101541.72
2019-02-15T07:31:26.103Z,101551.02
2019-02-15T07:33:54.631Z,101538.47
2019-02-15T07:36:23.237Z,101536.69
2019-02-15T07:38:51.860Z,101541.77
2019-02-15T07:41:20.471Z,101557.02
2019-02-15T07:43:49.018Z,101544.48
2019-02-15T07:46:17.707Z,101551.77
2019-02-15T07:48:46.290Z,101556.52
2019-02-15T07:51:14.975Z,101558.13
2019-02-15T07:53:43.540Z,101561.33
2019-02-15T07:56:12.144Z,101554.47
2019-02-15T07:58:40.700Z,101554.47
2019-02-15T08:01:09.270Z,101553.61
2019-02-15T08:03:37.918Z,101551.66
2019-02-15T08:06:06.479Z,101557.41
2019-02-15T08:08:34.957Z,101550.72
2019-02-15T08:11:03.609Z,101548.63
2019-02-15T08:13:32.298Z,101552.59
2019-02-15T08:16:02.685Z,101559.34
2019-02-15T08:18:31.032Z,101559.14
2019-02-15T08:20:59.589Z,101554.38
2019-02-15T08:23:28.153Z,101555.52
2019-02-15T08:25:56.762Z,101569.70
2019-02-15T08:28:25.327Z,101560.06
2019-02-15T08:30:53.937Z,101563.20
2019-02-15T08:33:22.617Z,101565.75
2019-02-15T08:35:51.114Z,101567.70
2019-02-15T08:38:19.749Z,101575.13
2019-02-15T08:40:48.321Z,101579.41
2019-02-15T08:43:16.805Z,101583.28
2019-02-15T08:45:45.439Z,101581.56
2019-02-15T08:48:14.032Z,101586.59
2019-02-15T08:50:42.699Z,101584.89
2019-02-15T08:53:11.187Z,101581.76
2019-02-15T08:55:40.707Z,101573.02
2019-02-15T08:58:11.278Z,101571.37
2019-02-15T09:00:39.473Z,101565.67
2019-02-15T09:03:08.094Z,101560.16
2019-02-15T09:05:36.655Z,101562.19
2019-02-15T09:08:06.101Z,101567.36
2019-02-15T09:10:34.709Z,101559.23
2019-02-15T09:13:03.278Z,101564.16
2019-02-15T09:15:31.838Z,101568.36
2019-02-15T09:18:00.506Z,101571.35
2019-02-15T09:20:28.998Z,101577.31
2019-02-15T09:22:57.623Z,101578.75
2019-02-15T09:25:26.218Z,101576.59
2019-02-15T09:28:14.517Z,101579.92
2019-02-15T09:30:45.578Z,101584.72
2019-02-15T09:33:17.110Z,101574.94
2019-02-15T09:35:47.380Z,101572.79
2019-02-15T09:38:17.700Z,101578.97
2019-02-15T09:40:51.574Z,101568.22
2019-02-15T09:43:21.713Z,101572.52
2019-02-15T09:45:51.908Z,101575.81
2019-02-15T09:48:20.622Z,101571.42
2019-02-15T09:50:49.158Z,101571.08
2019-02-15T09:53:17.660Z,101569.67
2019-02-15T09:55:46.163Z,101552.01
2019-02-15T09:58:16.484Z,101557.44
2019-02-15T10:00:45.477Z,101572.27
2019-02-15T10:03:14.034Z,101573.69
2019-02-15T10:05:42.699Z,101560.59
2019-02-15T10:08:11.373Z,101561.73
2019-02-15T10:10:39.945Z,101562.11
2019-02-15T10:13:08.608Z,101569.03
2019-02-15T10:15:37.162Z,101581.84
2019-02-15T10:18:05.796Z,101583.02
2019-02-15T10:20:34.495Z,101570.33
2019-02-15T10:23:05.595Z,101565.92
2019-02-15T10:25:34.221Z,101559.36
2019-02-15T10:28:07.447Z,101554.86
2019-02-15T10:30:36.010Z,101553.27
2019-02-15T10:33:04.731Z,101558.50
2019-02-15T10:35:33.373Z,101559.88
2019-02-15T10:38:01.865Z,101546.75
2019-02-15T10:40:30.498Z,101552.73
2019-02-15T10:42:59.125Z,101555.19
2019-02-15T10:45:27.690Z,101570.87
2019-02-15T10:47:56.315Z,101568.00
2019-02-15T10:50:24.886Z,101583.00
2019-02-15T10:52:53.595Z,101576.36
2019-02-15T10:55:22.240Z,101565.10
2019-02-15T10:57:50.907Z,101555.11
2019-02-15T11:00:20.520Z,101550.66
2019-02-15T11:02:52.263Z,101546.63
2019-02-15T11:05:20.866Z,101554.41
2019-02-15T11:07:49.368Z,101553.77
2019-02-15T11:10:17.997Z,101561.83
2019-02-15T11:12:46.617Z,101556.10
2019-02-15T11:15:16.998Z,101561.36
2019-02-15T11:17:45.612Z,101550.02
2019-02-15T11:20:16.967Z,101557.57
2019-02-15T11:22:45.608Z,101552.49
2019-02-15T11:25:14.305Z,101556.39
2019-02-15T11:27:42.960Z,101554.67
2019-02-15T11:30:13.912Z,101551.08
2019-02-15T11:32:42.548Z,101558.48
2019-02-15T11:35:12.914Z,101545.22
2019-02-15T11:37:41.538Z,101538.45
2019-02-15T11:40:15.192Z,101542.00
2019-02-15T11:42:43.866Z,101538.64
2019-02-15T11:45:16.219Z,101535.57
2019-02-15T11:47:44.705Z,101535.02
2019-02-15T11:50:14.471Z,101536.20
2019-02-15T11:52:43.100Z,101542.28
2019-02-15T11:55:11.947Z,101539.30
2019-02-15T11:57:40.884Z,101536.94
2019-02-15T12:00:14.844Z,101534.56
2019-02-15T12:02:43.597Z,101532.34
2019-02-15T12:05:13.243Z,101534.79
2019-02-15T12:07:41.923Z,101532.03
2019-02-15T12:10:11.477Z,101532.95
2019-02-15T12:12:40.152Z,101537.37
2019-02-15T12:15:10.649Z,101540.84
2019-02-15T12:17:39.288Z,101542.42
2019-02-15T12:20:13.411Z,101544.34
2019-02-15T12:22:42.047Z,101550.55
2019-02-15T12:25:10.741Z,101542.94
2019-02-15T12:27:39.403Z,101532.10
2019-02-15T12:30:13.207Z,101533.01
2019-02-15T12:32:41.851Z,101524.65
2019-02-15T12:35:11.249Z,101519.84
2019-02-15T12:37:39.815Z,101520.25
2019-02-15T12:40:10.035Z,101522.60
2019-02-15T12:42:38.699Z,101519.78
2019-02-15T12:45:10.225Z,101520.34
2019-02-15T12:47:39.048Z,101525.20
2019-02-15T12:50:16.301Z,101518.22
2019-02-15T12:52:44.931Z,101522.55
2019-02-15T12:55:13.642Z,101516.40
2019-02-15T12:57:42.235Z,101518.77
2019-02-15T13:00:13.355Z,101516.48
2019-02-15T13:02:41.927Z,101522.80
2019-02-15T13:05:11.787Z,101520.11
2019-02-15T13:07:40.514Z,101515.59
2019-02-15T13:10:12.388Z,101529.92
2019-02-15T13:12:41.130Z,101518.66
2019-02-15T13:15:11.371Z,101529.58
2019-02-15T13:17:40.000Z,101529.59
2019-02-15T13:20:10.166Z,101526.91
2019-02-15T13:22:38.781Z,101524.88
2019-02-15T13:25:08.418Z,101523.66
2019-02-15T13:27:37.084Z,101529.56
2019-02-15T13:30:08.945Z,101526.20
2019-02-15T13:32:37.536Z,101521.76
2019-02-15T13:35:08.468Z,101517.84
2019-02-15T13:37:37.100Z,101512.31
2019-02-15T13:40:07.943Z,101507.48
2019-02-15T13:42:36.597Z,101503.86
2019-02-15T13:45:07.672Z,101511.17
2019-02-15T13:47:36.308Z,101520.77
2019-02-15T13:50:06.991Z,101520.43
2019-02-15T13:52:35.924Z,101522.53
2019-02-15T13:55:05.562Z,101520.17
2019-02-15T13:57:34.169Z,101521.69
2019-02-15T14:00:02.906Z,101524.81
2019-02-15T14:02:31.537Z,101522.84
2019-02-15T14:05:00.287Z,101522.55
2019-02-15T14:07:29.037Z,101523.09
2019-02-15T14:09:57.677Z,101527.31
2019-02-15T14:12:26.331Z,101526.78
2019-02-15T14:14:54.891Z,101536.48
2019-02-15T14:17:23.453Z,101536.90
2019-02-15T14:19:52.096Z,101540.44
2019-02-15T14:22:20.874Z,101534.00
2019-02-15T14:24:49.556Z,101534.42
2019-02-15T14:27:18.225Z,101532.66
2019-02-15T14:29:46.871Z,101529.38
2019-02-15T14:32:15.537Z,101525.89
2019-02-15T14:34:44.121Z,101528.99
2019-02-15T14:37:12.685Z,101521.19
2019-02-15T14:39:41.346Z,101526.39
2019-02-15T14:42:10.061Z,101534.45
2019-02-15T14:44:40.237Z,101536.12
2019-02-15T14:47:08.766Z,101536.06
2019-02-15T14:49:37.360Z,101538.83
2019-02-15T14:52:06.004Z,101531.63
2019-02-15T14:54:34.557Z,101524.09
2019-02-15T14:57:03.147Z,101529.31
2019-02-15T14:59:31.711Z,101528.06
2019-02-15T15:02:00.486Z,101530.94
2019-02-15T15:04:29.017Z,101525.94
2019-02-15T15:06:57.520Z,101529.31
2019-02-15T15:09:26.166Z,101525.88
2019-02-15T15:11:54.750Z,101518.54
2019-02-15T15:14:23.383Z,101520.98
2019-02-15T15:16:51.951Z,101523.04
2019-02-15T15:19:20.694Z,101535.14
2019-02-15T15:21:49.273Z,101518.39
2019-02-15T15:24:17.823Z,101525.80
2019-02-15T15:26:46.482Z,101528.87
2019-02-15T15:29:15.222Z,101533.94
2019-02-15T15:31:43.796Z,101543.80
2019-02-15T15:34:12.462Z,101537.91
2019-02-15T15:36:41.101Z,101540.48
2019-02-15T15:39:11.365Z,101543.36
2019-02-15T15:41:40.029Z,101546.30
2019-02-15T15:44:08.653Z,101548.89
2019-02-15T15:46:37.291Z,101545.27
2019-02-15T15:49:05.967Z,101550.23
2019-02-15T15:51:34.611Z,101562.94
2019-02-15T15:54:03.257Z,101567.58
2019-02-15T15:56:31.781Z,101566.35
2019-02-15T15:59:00.419Z,101566.62
2019-02-15T16:01:28.996Z,101569.39
2019-02-15T16:03:57.735Z,101575.05
2019-02-15T16:06:26.325Z,101577.44
2019-02-15T16:08:54.935Z,101586.33
2019-02-15T16:11:23.609Z,101587.47
2019-02-15T16:13:52.166Z,101589.81
2019-02-15T16:16:20.988Z,101593.01
2019-02-15T16:18:49.631Z,101595.04
2019-02-15T16:21:18.207Z,101591.81
2019-02-15T16:23:46.775Z,101598.77
2019-02-15T16:26:15.481Z,101605.44
2019-02-15T16:28:44.027Z,101601.88
2019-02-15T16:31:12.588Z,101600.55
2019-02-15T16:33:41.265Z,101599.48
2019-02-15T16:36:09.829Z,101599.36
2019-02-15T16:38:38.398Z,101605.09
2019-02-15T16:41:06.994Z,101608.80
2019-02-15T16:43:35.567Z,101613.35
2019-02-15T16:46:04.130Z,101612.05
2019-02-15T16:48:41.742Z,101613.47
2019-02-15T16:51:03.141Z,101618.89
2019-02-15T16:53:31.825Z,101619.55
2019-02-15T16:56:00.419Z,101619.77
2019-02-15T16:58:28.974Z,101615.72
2019-02-15T17:00:57.615Z,101623.09
2019-02-15T17:03:26.350Z,101623.63
2019-02-15T17:05:54.901Z,101622.50
2019-02-15T17:08:23.585Z,101629.95
2019-02-15T17:10:52.278Z,101629.98
2019-02-15T17:13:20.842Z,101626.31
2019-02-15T17:15:49.379Z,101622.52
2019-02-15T17:18:17.907Z,101618.80
2019-02-15T17:20:46.481Z,101621.08
2019-02-15T17:23:15.088Z,101613.91
2019-02-15T17:25:45.722Z,101618.88
2019-02-15T17:28:13.910Z,101619.58
2019-02-15T17:30:42.405Z,101624.11
2019-02-15T17:33:10.958Z,101624.78
2019-02-15T17:35:39.584Z,101626.76
2019-02-15T17:38:08.217Z,101630.16
2019-02-15T17:40:36.826Z,101632.92
2019-02-15T17:43:05.472Z,101636.14
2019-02-15T17:45:34.129Z,101630.78
2019-02-15T17:48:02.796Z,101633.48
2019-02-15T17:50:31.517Z,101627.55
2019-02-15T17:53:00.078Z,101634.08
2019-02-15T17:55:28.815Z,101636.23
2019-02-15T17:57:57.506Z,101641.44
2019-02-15T18:00:27.725Z,101637.22
2019-02-15T18:02:56.520Z,101639.88
2019-02-15T18:05:25.220Z,101638.59
2019-02-15T18:07:53.823Z,101646.31
2019-02-15T18:10:22.492Z,101641.67
2019-02-15T18:12:51.078Z,101641.76
2019-02-15T18:15:19.697Z,101637.11
2019-02-15T18:17:48.406Z,101643.18
2019-02-15T18:20:17.023Z,101656.11
2019-02-15T18:22:45.656Z,101649.39
2019-02-15T18:25:14.334Z,101656.66
2019-02-15T18:27:43.052Z,101651.67
2019-02-15T18:30:14.734Z,101647.63
2019-02-15T18:32:43.401Z,101649.82
2019-02-15T18:35:13.490Z,101649.82
2019-02-15T18:37:42.184Z,101649.89
2019-02-15T18:40:14.979Z,101646.91
2019-02-15T18:42:45.249Z,101648.98
2019-02-15T18:45:16.822Z,101639.68
2019-02-15T18:47:45.567Z,101639.68
2019-02-15T18:50:14.319Z,101647.42
2019-02-15T18:52:42.968Z,101650.91
2019-02-15T18:55:14.160Z,101641.16
2019-02-15T18:57:42.982Z,101653.55
2019-02-15T19:00:16.283Z,101647.64
2019-02-15T19:02:49.056Z,101645.58
2019-02-15T19:05:19.339Z,101649.91
2019-02-15T19:07:48.095Z,101651.20
2019-02-15T19:10:19.053Z,101654.70
2019-02-15T19:12:51.705Z,101657.36
2019-02-15T19:15:20.313Z,101656.98
2019-02-15T19:17:49.037Z,101660.04
2019-02-15T19:20:19.161Z,101669.94
2019-02-15T19:22:49.188Z,101667.08
2019-02-15T19:25:19.856Z,101664.23
2019-02-15T19:27:48.507Z,101660.89
2019-02-15T19:30:23.263Z,101663.52
2019-02-15T19:32:52.029Z,101657.55
2019-02-15T19:35:20.666Z,101655.53
2019-02-15T19:37:52.226Z,101663.30
2019-02-15T19:40:21.229Z,101663.30
2019-02-15T19:42:52.515Z,101673.55
2019-02-15T19:45:21.238Z,101660.73
2019-02-15T19:47:49.837Z,101668.82
2019-02-15T19:50:18.946Z,101679.11
2019-02-15T19:52:49.019Z,101675.77
2019-02-15T19:55:17.833Z,101678.36
2019-02-15T19:57:46.891Z,101680.08
2019-02-15T20:00:17.892Z,101687.36
2019-02-15T20:02:46.716Z,101686.91
2019-02-15T20:05:15.365Z,101686.95
2019-02-15T20:07:44.294Z,101695.93
2019-02-15T20:10:19.520Z,101690.81
2019-02-15T20:12:48.147Z,101687.88
2019-02-15T20:15:16.859Z,101684.00
2019-02-15T20:17:45.728Z,101689.16
2019-02-15T20:20:16.610Z,101688.34
2019-02-15T20:22:45.240Z,101682.84
2019-02-15T20:25:14.522Z,101695.72
2019-02-15T20:27:43.172Z,101694.89
2019-02-15T20:30:14.709Z,101697.50
2019-02-15T20:32:43.487Z,101691.11
2019-02-15T20:35:13.603Z,101694.56
2019-02-15T20:37:42.549Z,101693.68
2019-02-15T20:40:12.994Z,101693.27
2019-02-15T20:42:44.682Z,101691.16
2019-02-15T20:45:16.210Z,101692.51
2019-02-15T20:47:48.089Z,101694.26
2019-02-15T20:50:19.078Z,101691.72
2019-02-15T20:52:49.461Z,101691.30
2019-02-15T20:55:20.369Z,101693.05
2019-02-15T20:57:50.580Z,101690.53
2019-02-15T21:00:31.453Z,101690.13
2019-02-15T21:03:01.630Z,101685.93
2019-02-15T21:05:30.311Z,101689.34
2019-02-15T21:07:58.979Z,101688.92
2019-02-15T21:10:29.051Z,101682.98
2019-02-15T21:12:57.629Z,101688.13
2019-02-15T21:15:26.342Z,101689.44
2019-02-15T21:17:57.877Z,101682.16
2019-02-15T21:20:26.506Z,101682.17
2019-02-15T21:22:55.179Z,101681.77
2019-02-15T21:25:25.321Z,101679.20
2019-02-15T21:27:55.604Z,101671.94
2019-02-15T21:30:24.362Z,101682.19
2019-02-15T21:32:52.945Z,101676.64
2019-02-15T21:35:23.053Z,101675.39
2019-02-15T21:37:51.750Z,101677.98
2019-02-15T21:40:20.301Z,101681.03
2019-02-15T21:42:48.939Z,101679.36
2019-02-15T21:45:19.249Z,101679.78
2019-02-15T21:47:48.090Z,101679.78
2019-02-15T21:50:17.753Z,101684.92
2019-02-15T21:52:46.701Z,101689.67
2019-02-15T21:55:16.941Z,101679.86
2019-02-15T21:57:45.608Z,101679.86
2019-02-15T22:00:17.186Z,101684.14
2019-02-15T22:02:45.970Z,101674.75
2019-02-15T22:05:16.934Z,101679.03
2019-02-15T22:07:47.069Z,101679.03
2019-02-15T22:10:20.984Z,101683.72
2019-02-15T22:12:49.552Z,101693.98
2019-02-15T22:15:18.668Z,101688.04
2019-02-15T22:17:47.311Z,101691.47
2019-02-15T22:20:25.976Z,101695.77
2019-02-15T22:22:47.250Z,101696.20
2019-02-15T22:25:16.009Z,101701.74
2019-02-15T22:27:44.623Z,101701.75
2019-02-15T22:30:20.448Z,101682.56
2019-02-15T22:32:49.086Z,101700.48
2019-02-15T22:35:17.579Z,101700.48
2019-02-15T22:37:46.199Z,101699.63
2019-02-15T22:40:26.403Z,101696.62
2019-02-15T22:42:54.925Z,101701.75
2019-02-15T22:45:23.560Z,101706.88
2019-02-15T22:47:52.186Z,101700.94
2019-02-15T22:50:20.873Z,101700.94
2019-02-15T22:52:49.473Z,101700.95
2019-02-15T22:55:18.115Z,101704.80
2019-02-15T22:57:48.417Z,101711.64
2019-02-15T23:00:48.176Z,101703.98
2019-02-15T23:03:18.695Z,101707.83
2019-02-15T23:05:47.329Z,101706.53
2019-02-15T23:08:15.960Z,101706.53
2019-02-15T23:10:44.558Z,101706.12
2019-02-15T23:13:13.154Z,101708.27
2019-02-15T23:15:41.865Z,101705.72
2019-02-15T23:18:10.534Z,101707.44
2019-02-15T23:20:45.104Z,101703.17
2019-02-15T23:23:09.578Z,101693.39
2019-02-15T23:25:38.278Z,101693.39
2019-02-15T23:28:06.975Z,101702.34
2019-02-15T23:30:35.549Z,101702.34
2019-02-15T23:33:04.162Z,101699.34
2019-02-15T23:35:32.750Z,101699.34
2019-02-15T23:38:02.893Z,101706.58
2019-02-15T23:40:31.652Z,101704.03
2019-02-15T23:43:00.265Z,101697.63
2019-02-15T23:45:28.900Z,101707.46
2019-02-15T23:47:57.508Z,101706.59
2019-02-15T23:50:26.138Z,101705.75
2019-02-15T23:52:54.773Z,101705.75
2019-02-15T23:55:23.312Z,101705.75
2019-02-15T23:57:51.956Z,101706.19
